Time;durP1;ratioP1;P1;durP2;ratioP2;P2;SDS_P1;SDS_P2;PMS_P1;PMS_P2;Temp;Humidity;BMP_temperature;BMP_pressure;BME280_temperature;BME280_humidity;BME280_pressure;Samples;Min_cycle;Max_cycle;Signal;HPM_P1;HPM_P2
2023/08/17 00:00:04;;;;;;;1.50;0.98;;;;;;;;;;7306121;19;140466;-73
2023/08/17 00:02:30;;;;;;;0.73;0.73;;;;;;;;;;7305280;19;140641;-73
2023/08/17 00:04:57;;;;;;;0.52;0.50;;;;;;;;;;7305472;19;141745;-73
2023/08/17 00:07:24;;;;;;;0.90;0.80;;;;;;;;;;7305389;19;142391;-73
2023/08/17 00:09:52;;;;;;;0.93;0.70;;;;;;;;;;7305506;19;140608;-73
2023/08/17 00:12:20;;;;;;;0.60;0.60;;;;;;;;;;7305162;19;140620;-73
2023/08/17 00:14:47;;;;;;;0.77;0.57;;;;;;;;;;7305695;19;140763;-72
2023/08/17 00:17:14;;;;;;;0.60;0.60;;;;;;;;;;7304564;19;141956;-72
2023/08/17 00:19:41;;;;;;;1.75;0.75;;;;;;;;;;7304876;19;141266;-73
2023/08/17 00:22:08;;;;;;;1.27;0.68;;;;;;;;;;7303822;19;140951;-73
2023/08/17 00:24:35;;;;;;;1.00;0.65;;;;;;;;;;7305036;19;141003;-72
2023/08/17 00:27:03;;;;;;;0.68;0.60;;;;;;;;;;7304300;19;142028;-72
2023/08/17 00:29:30;;;;;;;0.75;0.70;;;;;;;;;;7305384;19;140611;-73
2023/08/17 00:31:57;;;;;;;1.27;0.70;;;;;;;;;;7303875;19;140561;-75
2023/08/17 00:34:24;;;;;;;1.10;0.70;;;;;;;;;;7304614;19;141169;-73
2023/08/17 00:36:51;;;;;;;0.60;0.60;;;;;;;;;;7304704;19;141761;-72
2023/08/17 00:39:19;;;;;;;0.70;0.70;;;;;;;;;;7304593;19;140668;-73
2023/08/17 00:41:46;;;;;;;0.93;0.60;;;;;;;;;;7304692;19;140722;-73
2023/08/17 00:44:13;;;;;;;0.70;0.60;;;;;;;;;;7304581;19;140968;-73
2023/08/17 00:46:40;;;;;;;1.02;0.75;;;;;;;;;;7302714;19;142361;-73
2023/08/17 00:49:08;;;;;;;0.85;0.77;;;;;;;;;;7305151;19;140557;-74
2023/08/17 00:51:35;;;;;;;0.90;0.68;;;;;;;;;;7302706;19;140648;-73
2023/08/17 00:54:02;;;;;;;0.63;0.57;;;;;;;;;;7303064;19;141021;-73
2023/08/17 00:56:29;;;;;;;0.60;0.60;;;;;;;;;;7303899;19;142584;-74
2023/08/17 00:58:56;;;;;;;0.77;0.57;;;;;;;;;;7304466;19;140478;-74
2023/08/17 01:01:23;;;;;;;0.88;0.68;;;;;;;;;;7302891;19;140448;-73
2023/08/17 01:03:51;;;;;;;1.30;0.73;;;;;;;;;;7304060;19;141004;-74
2023/08/17 01:06:18;;;;;;;1.05;0.75;;;;;;;;;;7304742;19;142277;-73
2023/08/17 01:08:45;;;;;;;0.70;0.70;;;;;;;;;;7303899;19;141000;-73
2023/08/17 01:11:18;;;;;;;0.80;0.80;;;;;;;;;;7304404;19;140401;-72
2023/08/17 01:13:45;;;;;;;0.73;0.60;;;;;;;;;;7303621;19;141553;-73
2023/08/17 01:16:15;;;;;;;1.30;0.75;;;;;;;;;;7302102;19;142700;-73
2023/08/17 01:18:43;;;;;;;0.85;0.85;;;;;;;;;;7303718;19;140594;-73
2023/08/17 01:21:13;;;;;;;1.65;0.90;;;;;;;;;;7303267;19;140775;-73
2023/08/17 01:23:40;;;;;;;;;;;;;;;;;;7303689;19;141248;-74
2023/08/17 01:26:08;;;;;;;0.77;0.60;;;;;;;;;;7302492;19;148669;-74
2023/08/17 01:28:35;;;;;;;0.52;0.52;;;;;;;;;;7303162;19;140535;-74
2023/08/17 01:31:11;;;;;;;0.70;0.65;;;;;;;;;;7303297;19;140479;-74
2023/08/17 01:33:42;;;;;;;0.75;0.70;;;;;;;;;;7302083;19;141214;-74
2023/08/17 01:36:09;;;;;;;0.60;0.50;;;;;;;;;;7301745;19;143134;-73
2023/08/17 01:38:38;;;;;;;0.70;0.70;;;;;;;;;;7303225;19;140468;-73
2023/08/17 01:41:06;;;;;;;0.85;0.60;;;;;;;;;;7302835;19;140606;-73
2023/08/17 01:43:34;;;;;;;0.60;0.60;;;;;;;;;;7301867;19;140823;-73
2023/08/17 01:46:01;;;;;;;0.77;0.60;;;;;;;;;;7302285;19;142355;-73
2023/08/17 01:48:28;;;;;;;2.63;0.85;;;;;;;;;;7301475;19;140752;-73
2023/08/17 01:50:55;;;;;;;0.40;0.40;;;;;;;;;;7302347;19;140512;-73
2023/08/17 01:53:22;;;;;;;0.85;0.73;;;;;;;;;;7301200;19;141071;-73
2023/08/17 01:55:49;;;;;;;1.20;0.70;;;;;;;;;;7301467;19;141985;-73
2023/08/17 01:58:19;;;;;;;0.73;0.73;;;;;;;;;;7302310;19;140606;-73
2023/08/17 02:00:46;;;;;;;0.55;0.55;;;;;;;;;;7302200;19;140464;-73
2023/08/17 02:03:13;;;;;;;2.70;0.90;;;;;;;;;;7300493;19;142049;-73
2023/08/17 02:05:44;;;;;;;0.95;0.70;;;;;;;;;;7301366;19;142229;-73
2023/08/17 02:08:11;;;;;;;2.05;0.82;;;;;;;;;;7301867;19;140400;-73
2023/08/17 02:10:38;;;;;;;1.75;0.80;;;;;;;;;;7301586;19;140695;-73
2023/08/17 02:13:05;;;;;;;1.13;0.80;;;;;;;;;;7301662;19;141005;-73
2023/08/17 02:15:43;;;;;;;0.70;0.63;;;;;;;;;;7301566;19;142542;-73
2023/08/17 02:18:10;;;;;;;0.68;0.50;;;;;;;;;;7299508;19;140638;-73
2023/08/17 02:20:37;;;;;;;0.93;0.60;;;;;;;;;;7301348;19;140575;-74
2023/08/17 02:23:04;;;;;;;1.58;0.90;;;;;;;;;;7304387;19;140906;-73
2023/08/17 02:25:35;;;;;;;0.80;0.63;;;;;;;;;;7300937;19;142379;-73
2023/08/17 02:28:03;;;;;;;0.70;0.70;;;;;;;;;;7299990;19;140665;-73
2023/08/17 02:30:30;;;;;;;1.50;0.80;;;;;;;;;;7300952;19;140737;-73
2023/08/17 02:32:58;;;;;;;0.57;0.57;;;;;;;;;;7300404;19;141511;-73
2023/08/17 02:35:25;;;;;;;0.70;0.60;;;;;;;;;;7300943;19;140743;-74
2023/08/17 02:37:52;;;;;;;0.63;0.60;;;;;;;;;;7299833;19;140536;-73
2023/08/17 02:40:19;;;;;;;0.70;0.70;;;;;;;;;;7300787;19;140654;-74
2023/08/17 02:42:47;;;;;;;1.17;0.70;;;;;;;;;;7300561;19;141256;-74
2023/08/17 02:45:14;;;;;;;0.95;0.63;;;;;;;;;;7300112;19;142981;-74
2023/08/17 02:47:42;;;;;;;0.55;0.55;;;;;;;;;;7299753;19;140723;-73
2023/08/17 02:50:09;;;;;;;0.73;0.60;;;;;;;;;;7300869;19;140559;-74
2023/08/17 02:52:36;;;;;;;0.95;0.70;;;;;;;;;;7300084;19;141839;-74
2023/08/17 02:55:03;;;;;;;0.63;0.60;;;;;;;;;;7299985;19;141983;-73
2023/08/17 02:57:30;;;;;;;0.60;0.60;;;;;;;;;;7300336;19;140418;-73
2023/08/17 02:59:57;;;;;;;0.93;0.63;;;;;;;;;;7299725;19;140597;-72
2023/08/17 03:02:24;;;;;;;0.75;0.60;;;;;;;;;;7299111;19;141123;-73
2023/08/17 03:04:52;;;;;;;1.02;0.60;;;;;;;;;;7303046;19;141967;-73
2023/08/17 03:07:19;;;;;;;0.52;0.50;;;;;;;;;;7307048;19;140385;-73
2023/08/17 03:09:46;;;;;;;0.85;0.70;;;;;;;;;;7307232;19;141257;-72
2023/08/17 03:12:13;;;;;;;1.00;0.70;;;;;;;;;;7307064;19;141011;-72
2023/08/17 03:14:40;;;;;;;0.75;0.75;;;;;;;;;;7306847;19;141799;-73
2023/08/17 03:17:07;;;;;;;0.98;0.70;;;;;;;;;;7306417;19;140578;-73
2023/08/17 03:19:34;;;;;;;0.80;0.80;;;;;;;;;;7307387;19;140532;-74
2023/08/17 03:22:01;;;;;;;0.55;0.50;;;;;;;;;;7306814;19;141487;-73
2023/08/17 03:24:28;;;;;;;0.98;0.70;;;;;;;;;;7306527;19;142224;-72
2023/08/17 03:26:55;;;;;;;0.52;0.50;;;;;;;;;;7307125;19;140861;-73
2023/08/17 03:29:22;;;;;;;0.70;0.50;;;;;;;;;;7306943;19;140713;-73
2023/08/17 03:31:49;;;;;;;0.50;0.50;;;;;;;;;;7306244;19;141057;-73
2023/08/17 03:34:16;;;;;;;0.70;0.63;;;;;;;;;;7306255;19;141887;-73
2023/08/17 03:36:43;;;;;;;0.70;0.60;;;;;;;;;;7306935;19;141047;-72
2023/08/17 03:39:11;;;;;;;1.48;0.70;;;;;;;;;;7307375;19;140762;-73
2023/08/17 03:41:38;;;;;;;0.95;0.70;;;;;;;;;;7306115;19;141297;-73
2023/08/17 03:44:05;;;;;;;0.50;0.40;;;;;;;;;;7306355;19;141951;-73
2023/08/17 03:46:33;;;;;;;0.55;0.52;;;;;;;;;;7306606;19;140696;-74
2023/08/17 03:49:00;;;;;;;0.60;0.60;;;;;;;;;;7305554;19;141590;-73
2023/08/17 03:51:27;;;;;;;0.70;0.50;;;;;;;;;;7306081;19;142008;-73
2023/08/17 03:53:54;;;;;;;1.38;0.60;;;;;;;;;;7304098;19;142145;-74
2023/08/17 03:56:21;;;;;;;0.68;0.50;;;;;;;;;;7305394;19;140653;-74
2023/08/17 03:58:49;;;;;;;0.70;0.57;;;;;;;;;;7306173;19;140687;-73
2023/08/17 04:01:16;;;;;;;0.80;0.52;;;;;;;;;;7305802;19;142317;-74
2023/08/17 04:03:43;;;;;;;0.40;0.40;;;;;;;;;;7304431;19;141965;-73
2023/08/17 04:06:10;;;;;;;0.60;0.60;;;;;;;;;;7305548;19;140646;-72
2023/08/17 04:08:38;;;;;;;0.50;0.50;;;;;;;;;;7305508;19;140424;-73
2023/08/17 04:11:05;;;;;;;0.68;0.57;;;;;;;;;;7304997;19;140524;-73
2023/08/17 04:13:32;;;;;;;0.85;0.55;;;;;;;;;;7304158;19;141058;-73
2023/08/17 04:15:59;;;;;;;1.20;0.70;;;;;;;;;;7303972;19;140791;-73
2023/08/17 04:18:26;;;;;;;0.80;0.50;;;;;;;;;;7304423;19;140724;-73
2023/08/17 04:20:53;;;;;;;0.90;0.60;;;;;;;;;;7304915;19;141080;-73
2023/08/17 04:23:21;;;;;;;1.20;0.60;;;;;;;;;;7305114;19;142434;-73
2023/08/17 04:25:48;;;;;;;1.13;0.75;;;;;;;;;;7305022;19;140591;-72
2023/08/17 04:28:15;;;;;;;0.80;0.60;;;;;;;;;;7304879;19;140544;-72
2023/08/17 04:30:42;;;;;;;1.50;0.80;;;;;;;;;;7306941;19;140465;-73
2023/08/17 04:33:09;;;;;;;0.75;0.63;;;;;;;;;;7304157;19;142046;-73
2023/08/17 04:35:36;;;;;;;1.20;0.63;;;;;;;;;;7304922;19;140615;-72
2023/08/17 04:38:03;;;;;;;1.17;0.70;;;;;;;;;;7304243;19;140680;-73
2023/08/17 04:40:31;;;;;;;1.13;0.70;;;;;;;;;;7304174;19;141046;-73
2023/08/17 04:42:59;;;;;;;0.52;0.52;;;;;;;;;;7303983;19;142283;-73
2023/08/17 04:45:26;;;;;;;0.63;0.52;;;;;;;;;;7304391;19;140816;-72
2023/08/17 04:47:53;;;;;;;0.75;0.60;;;;;;;;;;7304431;19;140634;-73
2023/08/17 04:50:21;;;;;;;0.80;0.63;;;;;;;;;;7304189;19;141875;-73
2023/08/17 04:52:48;;;;;;;0.52;0.52;;;;;;;;;;7303703;19;141863;-73
2023/08/17 04:55:15;;;;;;;1.08;0.70;;;;;;;;;;7304438;19;140683;-71
2023/08/17 04:57:42;;;;;;;1.08;0.68;;;;;;;;;;7304242;19;140471;-72
2023/08/17 05:00:09;;;;;;;0.50;0.50;;;;;;;;;;7303579;19;141536;-73
2023/08/17 05:02:37;;;;;;;2.63;0.93;;;;;;;;;;7303477;19;140781;-72
2023/08/17 05:05:04;;;;;;;1.00;0.60;;;;;;;;;;7303761;19;140668;-73
2023/08/17 05:07:31;;;;;;;0.82;0.60;;;;;;;;;;7303347;19;140677;-73
2023/08/17 05:09:58;;;;;;;1.23;0.63;;;;;;;;;;7302944;19;140522;-72
2023/08/17 05:12:25;;;;;;;1.73;0.70;;;;;;;;;;7303531;19;140788;-71
2023/08/17 05:14:52;;;;;;;0.80;0.60;;;;;;;;;;7303690;19;140614;-72
2023/08/17 05:17:19;;;;;;;1.42;0.52;;;;;;;;;;7303784;19;140677;-73
2023/08/17 05:19:46;;;;;;;2.05;0.80;;;;;;;;;;7301727;19;141297;-73
2023/08/17 05:22:14;;;;;;;0.70;0.70;;;;;;;;;;7302936;19;140883;-71
2023/08/17 05:24:41;;;;;;;0.65;0.60;;;;;;;;;;7303362;19;140874;-70
2023/08/17 05:27:08;;;;;;;1.33;0.77;;;;;;;;;;7300629;19;140496;-73
2023/08/17 05:29:35;;;;;;;0.73;0.70;;;;;;;;;;7302456;19;141719;-73
2023/08/17 05:32:02;;;;;;;0.93;0.60;;;;;;;;;;7301504;19;143133;-73
2023/08/17 05:34:30;;;;;;;1.08;0.68;;;;;;;;;;7302515;19;140525;-73
2023/08/17 05:36:57;;;;;;;0.73;0.60;;;;;;;;;;7302780;19;140675;-73
2023/08/17 05:39:24;;;;;;;0.70;0.60;;;;;;;;;;7302511;19;141015;-73
2023/08/17 05:41:51;;;;;;;1.65;0.70;;;;;;;;;;7300370;19;142135;-73
2023/08/17 05:44:18;;;;;;;0.85;0.50;;;;;;;;;;7302551;19;140563;-72
2023/08/17 05:46:45;;;;;;;2.38;0.90;;;;;;;;;;7302062;19;142007;-72
2023/08/17 05:49:12;;;;;;;1.20;0.77;;;;;;;;;;7300760;19;141059;-72
2023/08/17 05:51:39;;;;;;;0.90;0.80;;;;;;;;;;7302191;19;142531;-73
2023/08/17 05:54:07;;;;;;;0.85;0.60;;;;;;;;;;7302538;19;140596;-72
2023/08/17 05:56:34;;;;;;;1.08;0.70;;;;;;;;;;7302162;19;140673;-73
2023/08/17 05:59:01;;;;;;;0.77;0.70;;;;;;;;;;7302023;19;141170;-73
2023/08/17 06:01:28;;;;;;;0.95;0.70;;;;;;;;;;7301621;19;141894;-73
2023/08/17 06:03:55;;;;;;;1.23;0.70;;;;;;;;;;7301779;19;140848;-73
2023/08/17 06:06:22;;;;;;;0.65;0.65;;;;;;;;;;7301978;19;140982;-73
2023/08/17 06:08:49;;;;;;;1.85;0.85;;;;;;;;;;7301415;19;141808;-74
2023/08/17 06:11:16;;;;;;;0.82;0.70;;;;;;;;;;7311562;19;140913;-87
2023/08/17 06:13:43;;;;;;;2.60;0.82;;;;;;;;;;7335063;19;139938;-94
2023/08/17 06:16:11;;;;;;;3.00;1.02;;;;;;;;;;7306108;19;140452;-91
2023/08/17 06:18:38;;;;;;;0.95;0.63;;;;;;;;;;7305547;19;140475;-92
2023/08/17 06:21:06;;;;;;;0.60;0.50;;;;;;;;;;7302324;19;140932;-88
2023/08/17 06:23:36;;;;;;;1.17;0.77;;;;;;;;;;7304016;19;140776;-89
2023/08/17 06:26:03;;;;;;;1.13;0.75;;;;;;;;;;7304497;19;140789;-85
2023/08/17 06:28:30;;;;;;;0.77;0.68;;;;;;;;;;7301617;19;141101;-84
2023/08/17 06:30:57;;;;;;;0.77;0.60;;;;;;;;;;7298949;19;143052;-84
2023/08/17 06:33:33;;;;;;;2.80;1.20;;;;;;;;;;7300107;19;142532;-85
2023/08/17 06:36:00;;;;;;;1.15;0.80;;;;;;;;;;7297735;19;140762;-86
2023/08/17 06:38:27;;;;;;;1.20;0.70;;;;;;;;;;7299766;19;140950;-87
2023/08/17 06:40:54;;;;;;;0.73;0.70;;;;;;;;;;7301830;19;140766;-87
2023/08/17 06:43:21;;;;;;;0.73;0.60;;;;;;;;;;7305498;19;140726;-84
2023/08/17 06:45:49;;;;;;;0.70;0.70;;;;;;;;;;7299624;19;140669;-88
2023/08/17 06:48:16;;;;;;;0.65;0.60;;;;;;;;;;7302709;19;140922;-88
2023/08/17 06:50:43;;;;;;;1.20;0.80;;;;;;;;;;7300506;19;141858;-91
2023/08/17 06:53:10;;;;;;;1.85;0.90;;;;;;;;;;7303420;19;140495;-85
2023/08/17 06:55:37;;;;;;;1.60;1.02;;;;;;;;;;7300206;19;140965;-90
2023/08/17 06:58:04;;;;;;;2.55;1.17;;;;;;;;;;7298153;19;141687;-83
2023/08/17 07:00:31;;;;;;;2.35;1.45;;;;;;;;;;7300246;19;142439;-80
2023/08/17 07:02:58;;;;;;;2.70;1.48;;;;;;;;;;7300609;19;140693;-79
2023/08/17 07:05:27;;;;;;;3.03;1.77;;;;;;;;;;7299704;19;140715;-82
2023/08/17 07:07:55;;;;;;;4.25;1.50;;;;;;;;;;7298639;19;140679;-80
2023/08/17 07:10:22;;;;;;;4.32;2.05;;;;;;;;;;7298322;19;142810;-80
2023/08/17 07:12:49;;;;;;;3.38;1.95;;;;;;;;;;7298621;19;140575;-80
2023/08/17 07:15:16;;;;;;;5.55;2.38;;;;;;;;;;7299320;19;140589;-79
2023/08/17 07:17:43;;;;;;;9.00;2.15;;;;;;;;;;7299521;19;140996;-81
2023/08/17 07:20:13;;;;;;;10.35;2.30;;;;;;;;;;7297024;19;142003;-82
2023/08/17 07:23:03;;;;;;;7.32;1.95;;;;;;;;;;7299795;19;140762;-84
2023/08/17 07:25:31;;;;;;;8.05;2.20;;;;;;;;;;7300802;19;140491;-86
2023/08/17 07:27:58;;;;;;;14.25;2.53;;;;;;;;;;7300589;19;140889;-89
2023/08/17 07:30:25;;;;;;;18.92;3.20;;;;;;;;;;7299145;19;142043;-85
2023/08/17 07:32:53;;;;;;;11.77;2.80;;;;;;;;;;7298761;19;140813;-86
2023/08/17 07:35:21;;;;;;;20.40;3.03;;;;;;;;;;7297779;19;140592;-86
2023/08/17 07:37:48;;;;;;;10.27;2.97;;;;;;;;;;7298836;19;141341;-92
2023/08/17 07:40:30;;;;;;;9.43;2.35;;;;;;;;;;7307447;19;140624;-89
2023/08/17 07:42:57;;;;;;;10.00;2.30;;;;;;;;;;7301152;19;140679;-81
2023/08/17 07:45:25;;;;;;;8.40;2.28;;;;;;;;;;7303244;19;140569;-86
2023/08/17 07:47:52;;;;;;;8.05;1.70;;;;;;;;;;7300631;19;140565;-84
2023/08/17 07:50:21;;;;;;;9.23;2.15;;;;;;;;;;7304080;19;141790;-87
2023/08/17 07:52:48;;;;;;;9.15;2.30;;;;;;;;;;7310087;19;140826;-85
2023/08/17 07:55:16;;;;;;;9.50;2.15;;;;;;;;;;7307083;19;140840;-79
2023/08/17 07:57:43;;;;;;;5.57;1.80;;;;;;;;;;7307575;19;140539;-79
2023/08/17 08:00:11;;;;;;;12.48;2.25;;;;;;;;;;7309206;19;142137;-84
2023/08/17 08:02:38;;;;;;;9.77;2.15;;;;;;;;;;7309127;19;140574;-84
2023/08/17 08:05:06;;;;;;;8.32;2.28;;;;;;;;;;7306865;19;140976;-84
2023/08/17 08:07:33;;;;;;;11.48;2.15;;;;;;;;;;7307960;19;141685;-80
2023/08/17 08:10:00;;;;;;;8.60;2.58;;;;;;;;;;7309240;19;142194;-85
2023/08/17 08:12:27;;;;;;;7.10;2.65;;;;;;;;;;7308321;19;140998;-84
2023/08/17 08:14:55;;;;;;;8.45;2.65;;;;;;;;;;7310499;19;140385;-85
2023/08/17 08:17:22;;;;;;;5.30;2.40;;;;;;;;;;7308368;19;141164;-83
2023/08/17 08:19:50;;;;;;;7.32;2.20;;;;;;;;;;7309064;19;141034;-89
2023/08/17 08:22:17;;;;;;;5.30;2.38;;;;;;;;;;7312099;19;140363;-88
2023/08/17 08:24:44;;;;;;;6.93;2.03;;;;;;;;;;7310032;19;140801;-86
2023/08/17 08:27:12;;;;;;;5.43;2.50;;;;;;;;;;7309385;19;141044;-91
2023/08/17 08:29:39;;;;;;;9.68;3.00;;;;;;;;;;7306035;19;142284;-89
2023/08/17 08:32:24;;;;;;;15.77;4.03;;;;;;;;;;7301643;19;141961;-88
2023/08/17 08:34:54;;;;;;;6.15;2.47;;;;;;;;;;7306735;19;140625;-90
2023/08/17 08:37:22;;;;;;;6.50;2.50;;;;;;;;;;7309102;19;141567;-87
2023/08/17 08:39:50;;;;;;;7.43;2.60;;;;;;;;;;7310480;19;141435;-93
2023/08/17 08:42:19;;;;;;;5.32;2.50;;;;;;;;;;7307496;19;140817;-89
2023/08/17 08:44:46;;;;;;;4.00;2.60;;;;;;;;;;7305093;19;140644;-83
2023/08/17 08:47:14;;;;;;;7.30;3.03;;;;;;;;;;7303118;19;141523;-82
2023/08/17 08:50:04;;;;;;;6.95;3.00;;;;;;;;;;7304170;19;140872;-83
2023/08/17 08:52:33;;;;;;;6.38;2.78;;;;;;;;;;7303380;19;140532;-84
2023/08/17 08:55:04;;;;;;;9.98;2.90;;;;;;;;;;7304177;19;140459;-83
2023/08/17 08:57:31;;;;;;;13.25;2.75;;;;;;;;;;7303904;19;140464;-83
2023/08/17 08:59:58;;;;;;;8.30;3.13;;;;;;;;;;7302601;19;142500;-82
2023/08/17 09:02:26;;;;;;;8.95;3.25;;;;;;;;;;7302396;19;140796;-82
2023/08/17 09:04:54;;;;;;;9.98;2.75;;;;;;;;;;7303437;19;140726;-83
2023/08/17 09:07:22;;;;;;;5.40;3.00;;;;;;;;;;7303957;19;141804;-83
2023/08/17 09:09:49;;;;;;;8.57;2.90;;;;;;;;;;7303780;19;142366;-83
2023/08/17 09:12:16;;;;;;;11.00;2.97;;;;;;;;;;7303893;19;140461;-84
2023/08/17 09:15:00;;;;;;;5.57;2.58;;;;;;;;;;7303868;19;140403;-83
2023/08/17 09:17:34;;;;;;;6.88;2.95;;;;;;;;;;7303027;19;141402;-83
2023/08/17 09:20:02;;;;;;;6.70;2.42;;;;;;;;;;7302706;19;140671;-83
2023/08/17 09:22:37;;;;;;;8.52;2.55;;;;;;;;;;7303174;19;140404;-83
2023/08/17 09:25:04;;;;;;;5.50;2.53;;;;;;;;;;7303460;19;140623;-83
2023/08/17 09:27:32;;;;;;;5.88;2.70;;;;;;;;;;7303227;19;141179;-83
2023/08/17 09:30:06;;;;;;;10.05;3.42;;;;;;;;;;7303038;19;141595;-81
2023/08/17 09:32:33;;;;;;;6.75;2.38;;;;;;;;;;7302312;19;140609;-82
2023/08/17 09:35:01;;;;;;;8.55;2.70;;;;;;;;;;7302430;19;140756;-83
2023/08/17 09:37:28;;;;;;;7.70;2.75;;;;;;;;;;7302383;19;140496;-83
2023/08/17 09:39:55;;;;;;;5.70;2.40;;;;;;;;;;7301871;19;141909;-84
2023/08/17 09:42:25;;;;;;;6.75;2.40;;;;;;;;;;7303061;19;140562;-83
2023/08/17 09:44:53;;;;;;;7.60;2.45;;;;;;;;;;7303583;19;140606;-82
2023/08/17 09:47:24;;;;;;;4.75;2.30;;;;;;;;;;7301843;19;140660;-83
2023/08/17 09:49:54;;;;;;;5.15;2.53;;;;;;;;;;7300329;19;142605;-83
2023/08/17 09:52:21;;;;;;;;;;;;;;;;;;7301811;19;140576;-83
2023/08/17 09:54:49;;;;;;;5.25;2.55;;;;;;;;;;7300802;19;140754;-83
2023/08/17 09:57:16;;;;;;;4.63;2.42;;;;;;;;;;7302320;19;140434;-83
2023/08/17 09:59:50;;;;;;;3.80;2.33;;;;;;;;;;7301944;19;141879;-83
2023/08/17 10:02:23;;;;;;;5.82;2.70;;;;;;;;;;7302082;19;140807;-83
2023/08/17 10:04:52;;;;;;;6.35;2.53;;;;;;;;;;7300815;19;140609;-83
2023/08/17 10:07:21;;;;;;;4.75;2.20;;;;;;;;;;7301324;19;141286;-84
2023/08/17 10:10:02;;;;;;;3.80;2.67;;;;;;;;;;7301737;19;141837;-84
2023/08/17 10:12:32;;;;;;;5.70;2.42;;;;;;;;;;7300155;19;140489;-83
2023/08/17 10:15:02;;;;;;;5.75;2.40;;;;;;;;;;7301572;19;140457;-84
2023/08/17 10:17:33;;;;;;;3.80;2.20;;;;;;;;;;7301452;19;140599;-83
2023/08/17 10:20:01;;;;;;;7.07;2.45;;;;;;;;;;7302393;19;142440;-84
2023/08/17 10:22:33;;;;;;;6.72;2.60;;;;;;;;;;7301289;19;140485;-83
2023/08/17 10:25:01;;;;;;;3.92;2.25;;;;;;;;;;7300268;19;141001;-84
2023/08/17 10:27:28;;;;;;;5.57;2.40;;;;;;;;;;7301186;19;141672;-83
2023/08/17 10:29:56;;;;;;;6.53;2.40;;;;;;;;;;7300892;19;141995;-83
2023/08/17 10:32:24;;;;;;;3.78;2.10;;;;;;;;;;7301533;19;140716;-83
2023/08/17 10:34:52;;;;;;;4.32;2.47;;;;;;;;;;7299032;19;140619;-82
2023/08/17 10:37:20;;;;;;;6.43;2.13;;;;;;;;;;7302090;19;141749;-82
2023/08/17 10:39:48;;;;;;;3.28;1.98;;;;;;;;;;7300603;19;142024;-82
2023/08/17 10:42:29;;;;;;;3.92;2.40;;;;;;;;;;7301637;19;140506;-84
2023/08/17 10:44:56;;;;;;;3.70;2.25;;;;;;;;;;7299901;19;140644;-83
2023/08/17 10:47:31;;;;;;;4.85;2.20;;;;;;;;;;7300918;19;141027;-82
2023/08/17 10:50:06;;;;;;;4.57;2.13;;;;;;;;;;7298384;19;141145;-83
2023/08/17 10:52:35;;;;;;;4.55;2.20;;;;;;;;;;7301845;19;140627;-83
2023/08/17 10:55:05;;;;;;;2.85;1.90;;;;;;;;;;7306005;19;140703;-83
2023/08/17 10:57:39;;;;;;;4.13;2.20;;;;;;;;;;7332819;19;141145;-82
2023/08/17 11:00:42;;;;;;;4.55;2.58;;;;;;;;;;7332636;19;139960;-82
2023/08/17 11:03:11;;;;;;;;;;;;;;;;;;7320262;19;140412;-82
2023/08/17 11:05:40;;;;;;;4.93;2.10;;;;;;;;;;7319795;19;140450;-84
2023/08/17 11:08:09;;;;;;;3.60;1.98;;;;;;;;;;7312394;19;140232;-84
2023/08/17 11:10:38;;;;;;;3.45;2.15;;;;;;;;;;7301846;19;141854;-83
2023/08/17 11:13:06;;;;;;;5.32;2.38;;;;;;;;;;7301248;19;140550;-83
2023/08/17 11:15:45;;;;;;;3.47;2.17;;;;;;;;;;7300156;19;140552;-85
2023/08/17 11:18:12;;;;;;;3.78;2.70;;;;;;;;;;7299514;19;140972;-83
2023/08/17 11:20:40;;;;;;;3.65;2.10;;;;;;;;;;7299467;19;141219;-84
2023/08/17 11:23:09;;;;;;;3.40;2.00;;;;;;;;;;7300400;19;140654;-83
2023/08/17 11:25:37;;;;;;;3.70;2.28;;;;;;;;;;7303076;19;140687;-83
2023/08/17 11:28:06;;;;;;;3.78;2.30;;;;;;;;;;7306745;19;140925;-83
2023/08/17 11:30:35;;;;;;;4.70;2.58;;;;;;;;;;7306476;19;141871;-84
2023/08/17 11:33:02;;;;;;;8.15;3.35;;;;;;;;;;7305897;19;140649;-83
2023/08/17 11:35:30;;;;;;;4.07;1.95;;;;;;;;;;7306166;19;140613;-82
2023/08/17 11:37:57;;;;;;;5.30;2.30;;;;;;;;;;7306049;19;141419;-82
2023/08/17 11:40:25;;;;;;;2.83;2.10;;;;;;;;;;7304246;19;142377;-83
2023/08/17 11:42:52;;;;;;;5.10;2.22;;;;;;;;;;7306805;19;140553;-82
2023/08/17 11:45:19;;;;;;;2.78;2.00;;;;;;;;;;7304564;19;140620;-81
2023/08/17 11:47:53;;;;;;;3.90;2.13;;;;;;;;;;7304797;19;141127;-84
2023/08/17 11:50:20;;;;;;;3.25;2.08;;;;;;;;;;7305790;19;142780;-83
2023/08/17 11:52:47;;;;;;;5.07;2.38;;;;;;;;;;7306090;19;140603;-81
2023/08/17 11:55:17;;;;;;;4.45;1.90;;;;;;;;;;7306307;19;140533;-82
2023/08/17 11:57:50;;;;;;;3.50;2.07;;;;;;;;;;7306960;19;141699;-84
2023/08/17 12:00:20;;;;;;;3.72;2.05;;;;;;;;;;7305781;19;143138;-80
2023/08/17 12:02:48;;;;;;;5.00;2.60;;;;;;;;;;7303742;19;140772;-82
2023/08/17 12:05:19;;;;;;;4.35;2.42;;;;;;;;;;7305162;19;141966;-81
2023/08/17 12:07:46;;;;;;;4.35;2.67;;;;;;;;;;7305890;19;141689;-81
2023/08/17 12:10:13;;;;;;;6.53;2.95;;;;;;;;;;7305575;19;144324;-82
2023/08/17 12:12:41;;;;;;;7.82;2.88;;;;;;;;;;7304850;19;140754;-81
2023/08/17 12:15:09;;;;;;;4.95;2.60;;;;;;;;;;7305303;19;141594;-81
2023/08/17 12:17:41;;;;;;;5.57;2.70;;;;;;;;;;7305563;19;141119;-82
2023/08/17 12:20:08;;;;;;;4.32;2.78;;;;;;;;;;7304686;19;141874;-84
2023/08/17 12:22:35;;;;;;;5.93;3.25;;;;;;;;;;7303260;19;140593;-84
2023/08/17 12:25:03;;;;;;;5.03;2.90;;;;;;;;;;7305697;19;140441;-81
2023/08/17 12:27:31;;;;;;;5.97;2.97;;;;;;;;;;7305428;19;140942;-82
2023/08/17 12:30:00;;;;;;;7.13;3.13;;;;;;;;;;7304854;19;142392;-80
2023/08/17 12:32:27;;;;;;;6.25;2.88;;;;;;;;;;7305439;19;140806;-80
2023/08/17 12:34:55;;;;;;;5.47;2.85;;;;;;;;;;7303889;19;140537;-79
2023/08/17 12:37:24;;;;;;;5.18;2.90;;;;;;;;;;7304480;19;141224;-81
2023/08/17 12:39:54;;;;;;;9.40;3.03;;;;;;;;;;7303437;19;142456;31
2023/08/17 12:42:21;;;;;;;6.03;3.10;;;;;;;;;;7305006;19;141011;-83
2023/08/17 12:44:48;;;;;;;3.50;2.83;;;;;;;;;;7305429;19;140641;-85
2023/08/17 12:47:16;;;;;;;5.05;2.67;;;;;;;;;;7303064;19;140551;-82
2023/08/17 12:49:43;;;;;;;5.07;2.75;;;;;;;;;;7304104;19;143063;-79
2023/08/17 12:52:10;;;;;;;5.95;2.88;;;;;;;;;;7303775;19;140880;-80
2023/08/17 12:54:37;;;;;;;4.28;2.55;;;;;;;;;;7302310;19;140572;-79
2023/08/17 12:57:05;;;;;;;4.30;2.50;;;;;;;;;;7303486;19;141350;-79
2023/08/17 12:59:38;;;;;;;3.67;2.67;;;;;;;;;;7302914;19;140593;-78
2023/08/17 13:02:05;;;;;;;3.75;2.58;;;;;;;;;;7304199;19;140765;-79
2023/08/17 13:04:32;;;;;;;2.55;2.03;;;;;;;;;;7301172;19;140432;-78
2023/08/17 13:07:00;;;;;;;3.25;2.60;;;;;;;;;;7301792;19;140622;-79
2023/08/17 13:09:26;;;;;;;4.22;2.50;;;;;;;;;;7302552;19;142051;-80
2023/08/17 13:12:04;;;;;;;3.95;2.33;;;;;;;;;;7303714;19;140932;-82
2023/08/17 13:14:32;;;;;;;4.05;2.47;;;;;;;;;;7303803;19;140472;-81
2023/08/17 13:16:59;;;;;;;3.15;2.28;;;;;;;;;;7303200;19;141496;-81
2023/08/17 13:19:26;;;;;;;2.88;2.35;;;;;;;;;;7302655;19;142141;-81
2023/08/17 13:21:53;;;;;;;3.33;2.17;;;;;;;;;;7302603;19;140663;-81
2023/08/17 13:24:20;;;;;;;3.97;2.53;;;;;;;;;;7301526;19;140794;-80
2023/08/17 13:26:51;;;;;;;3.83;2.47;;;;;;;;;;7301875;19;141741;-82
2023/08/17 13:29:18;;;;;;;4.50;2.60;;;;;;;;;;7303139;19;142381;-81
2023/08/17 13:31:46;;;;;;;2.90;2.15;;;;;;;;;;7302998;19;140636;-80
2023/08/17 13:34:14;;;;;;;3.20;2.20;;;;;;;;;;7303508;19;140680;-81
2023/08/17 13:36:41;;;;;;;3.15;2.22;;;;;;;;;;7302345;19;141015;-82
2023/08/17 13:39:08;;;;;;;3.05;2.20;;;;;;;;;;7300510;19;142331;-80
2023/08/17 13:41:35;;;;;;;4.72;2.55;;;;;;;;;;7302854;19;140679;-81
2023/08/17 13:44:02;;;;;;;5.88;2.65;;;;;;;;;;7302752;19;140676;-80
2023/08/17 13:46:29;;;;;;;3.25;2.40;;;;;;;;;;7300452;19;141302;-82
2023/08/17 13:48:57;;;;;;;5.10;2.30;;;;;;;;;;7300593;19;141253;-83
2023/08/17 13:51:24;;;;;;;3.58;2.50;;;;;;;;;;7302417;19;140457;-83
2023/08/17 13:53:51;;;;;;;3.22;2.25;;;;;;;;;;7302485;19;140678;-89
2023/08/17 13:56:18;;;;;;;4.10;2.53;;;;;;;;;;7302696;19;142199;-84
2023/08/17 13:58:45;;;;;;;4.03;2.38;;;;;;;;;;7303351;19;142561;-84
2023/08/17 14:01:14;;;;;;;4.20;2.78;;;;;;;;;;7302588;19;140540;-87
2023/08/17 14:03:42;;;;;;;6.38;2.47;;;;;;;;;;7301820;19;140789;-88
2023/08/17 14:06:10;;;;;;;3.60;2.50;;;;;;;;;;7302392;19;141606;-87
2023/08/17 14:08:37;;;;;;;5.50;2.80;;;;;;;;;;7302586;19;142827;-86
2023/08/17 14:11:06;;;;;;;4.97;2.90;;;;;;;;;;7303320;19;140353;-86
2023/08/17 14:13:34;;;;;;;4.20;2.90;;;;;;;;;;7302124;19;140886;-90
2023/08/17 14:16:01;;;;;;;6.50;2.85;;;;;;;;;;7301820;19;141205;-86
2023/08/17 14:18:28;;;;;;;5.15;2.72;;;;;;;;;;7301294;19;142007;-81
2023/08/17 14:20:55;;;;;;;3.63;2.40;;;;;;;;;;7301812;19;140520;-81
2023/08/17 14:23:22;;;;;;;3.20;2.58;;;;;;;;;;7301891;19;140674;-79
2023/08/17 14:25:51;;;;;;;4.60;2.88;;;;;;;;;;7301302;19;140969;-79
2023/08/17 14:28:19;;;;;;;4.32;2.55;;;;;;;;;;7299211;19;141110;-80
2023/08/17 14:30:46;;;;;;;4.88;2.75;;;;;;;;;;7300565;19;140750;-81
2023/08/17 14:33:18;;;;;;;3.92;2.70;;;;;;;;;;7300167;19;140734;-79
2023/08/17 14:35:45;;;;;;;5.57;2.78;;;;;;;;;;7299775;19;141768;-78